Time;durP1;ratioP1;P1;durP2;ratioP2;P2;SDS_P1;SDS_P2;PMS_P1;PMS_P2;Temp;Humidity;BMP_temperature;BMP_pressure;BME280_temperature;BME280_humidity;BME280_pressure;Samples;Min_cycle;Max_cycle;Signal;HPM_P1;HPM_P2
2021/11/08 00:01:56;;;;;;;6.07;3.90;;;10.10;90.40;;;;;;5078012;28;20423;-46
2021/11/08 00:04:22;;;;;;;6.90;4.00;;;10.10;90.50;;;;;;5077640;28;20258;-46
2021/11/08 00:06:50;;;;;;;6.43;4.90;;;10.00;90.60;;;;;;5061194;28;20428;-46
2021/11/08 00:09:16;;;;;;;6.63;3.93;;;10.00;90.70;;;;;;5095598;28;20208;-46
2021/11/08 00:11:42;;;;;;;7.33;4.70;;;9.90;91.80;;;;;;5094072;28;20444;-46
2021/11/08 00:14:11;;;;;;;8.73;4.80;;;9.90;91.50;;;;;;5093004;28;20178;-46
2021/11/08 00:17:05;;;;;;;6.20;4.50;;;9.90;91.70;;;;;;5094902;28;20521;-46
2021/11/08 00:19:52;;;;;;;5.60;4.47;;;9.80;91.70;;;;;;5095318;28;20427;-46
2021/11/08 00:22:18;;;;;;;6.37;3.63;;;9.80;91.80;;;;;;5097097;28;20434;-46
2021/11/08 00:24:48;;;;;;;5.37;4.70;;;9.80;92.00;;;;;;5096260;28;20475;-46
2021/11/08 00:27:14;;;;;;;5.37;4.17;;;9.70;92.00;;;;;;5093393;28;20192;-46
2021/11/08 00:29:40;;;;;;;5.97;4.53;;;9.70;92.20;;;;;;5094416;28;20427;-46
2021/11/08 00:32:07;;;;;;;4.57;3.70;;;9.70;92.30;;;;;;5095922;28;20423;-46
2021/11/08 00:34:33;;;;;;;5.10;4.53;;;9.70;92.40;;;;;;5091591;28;20440;-46
2021/11/08 00:36:59;;;;;;;6.13;4.43;;;9.70;92.40;;;;;;5094815;28;20460;-46
2021/11/08 00:39:25;;;;;;;6.70;4.63;;;9.60;92.80;;;;;;5076345;28;20438;-46
2021/11/08 00:41:51;;;;;;;5.73;4.07;;;9.60;92.50;;;;;;5075528;28;20433;-46
2021/11/08 00:44:18;;;;;;;6.33;4.27;;;9.50;92.60;;;;;;5095865;28;20927;-46
2021/11/08 00:46:44;;;;;;;7.20;4.10;;;9.60;92.70;;;;;;5095893;28;20855;-46
2021/11/08 00:49:10;;;;;;;8.13;5.03;;;9.50;92.70;;;;;;5091453;28;20481;-46
2021/11/08 00:51:40;;;;;;;8.23;4.73;;;9.50;92.80;;;;;;5092570;28;20444;-46
2021/11/08 00:54:10;;;;;;;5.43;4.23;;;9.50;92.80;;;;;;5096564;28;20410;-46
2021/11/08 00:56:36;;;;;;;10.17;5.03;;;9.40;92.80;;;;;;5087048;28;20425;-46
2021/11/08 00:59:03;;;;;;;7.13;5.20;;;9.40;93.00;;;;;;5094932;28;20852;-46
2021/11/08 01:01:30;;;;;;;8.80;5.00;;;9.40;93.10;;;;;;5093000;28;20192;-46
2021/11/08 01:03:56;;;;;;;8.83;6.33;;;9.40;93.20;;;;;;5075041;28;20435;-47
2021/11/08 01:06:22;;;;;;;8.77;4.90;;;9.30;93.30;;;;;;5096919;28;20424;-45
2021/11/08 01:08:48;;;;;;;6.50;5.27;;;9.30;93.40;;;;;;5095198;28;20220;-46
2021/11/08 01:11:14;;;;;;;10.43;4.87;;;9.30;93.50;;;;;;5089055;28;20500;-46
2021/11/08 01:13:41;;;;;;;11.77;4.97;;;9.30;93.60;;;;;;5091336;28;20578;-46
2021/11/08 01:16:07;;;;;;;8.43;5.57;;;9.30;93.60;;;;;;5072842;28;20496;-46
2021/11/08 01:18:33;;;;;;;8.37;5.07;;;9.20;93.60;;;;;;5094792;28;20450;-45
2021/11/08 01:20:59;;;;;;;8.17;5.37;;;9.20;93.60;;;;;;5100806;28;20512;-46
2021/11/08 01:23:26;;;;;;;8.80;4.80;;;9.20;93.60;;;;;;5101160;28;20432;-46
2021/11/08 01:26:00;;;;;;;7.23;5.07;;;9.20;93.60;;;;;;5100455;28;20196;-46
2021/11/08 01:28:42;;;;;;;7.13;4.83;;;9.20;93.60;;;;;;5100954;28;20878;-46
2021/11/08 01:31:10;;;;;;;6.47;5.20;;;9.10;93.60;;;;;;5100758;28;20828;-46
2021/11/08 01:33:37;;;;;;;5.20;4.57;;;9.10;93.60;;;;;;5100634;28;20414;-46
2021/11/08 01:38:39;;;;;;;7.57;4.87;;;9.10;93.60;;;;;;5099818;28;20419;-46
2021/11/08 01:41:05;;;;;;;7.37;5.37;;;9.00;93.60;;;;;;5099881;28;20526;-46
2021/11/08 01:43:33;;;;;;;8.97;5.20;;;9.00;93.60;;;;;;5099718;28;20499;-46
2021/11/08 01:45:58;;;;;;;7.57;4.70;;;8.90;93.60;;;;;;5100218;28;20406;-46
2021/11/08 01:48:24;;;;;;;6.90;4.77;;;8.90;93.60;;;;;;5100336;28;20462;-46
2021/11/08 01:50:50;;;;;;;10.00;5.03;;;8.80;93.60;;;;;;5100020;28;20505;-46
2021/11/08 01:53:16;;;;;;;8.90;5.20;;;8.80;93.60;;;;;;5099629;28;20484;-46
2021/11/08 01:55:43;;;;;;;8.27;4.93;;;8.80;93.60;;;;;;5100157;28;20410;-46
2021/11/08 01:58:09;;;;;;;12.60;5.60;;;8.70;93.60;;;;;;5100105;28;20843;-46
2021/11/08 02:00:37;;;;;;;7.10;4.90;;;8.60;93.60;;;;;;5100073;28;20483;-46
2021/11/08 02:03:03;;;;;;;7.93;4.57;;;8.60;93.50;;;;;;5099736;28;20435;-46
2021/11/08 02:05:28;;;;;;;6.50;5.07;;;8.50;93.50;;;;;;5100190;28;20491;-46
2021/11/08 02:07:54;;;;;;;7.20;4.80;;;8.50;93.50;;;;;;5100094;28;20286;-46
2021/11/08 02:10:23;;;;;;;5.57;4.83;;;8.40;93.40;;;;;;5100001;28;20276;-46
2021/11/08 02:12:49;;;;;;;7.20;4.90;;;8.40;93.40;;;;;;5099739;28;20177;-46
2021/11/08 02:15:17;;;;;;;8.20;4.63;;;8.30;93.40;;;;;;5099699;28;20433;-46
2021/11/08 02:17:46;;;;;;;6.43;5.20;;;8.30;93.40;;;;;;5100091;28;20419;-46
2021/11/08 02:23:35;;;;;;;7.20;4.70;;;8.10;93.20;;;;;;5099359;28;20511;-46
2021/11/08 02:26:04;;;;;;;7.00;5.00;;;8.10;93.20;;;;;;5099749;28;20438;-46
2021/11/08 02:28:29;;;;;;;7.33;4.43;;;8.00;93.20;;;;;;5099538;28;20471;-46
2021/11/08 02:30:57;;;;;;;4.60;4.10;;;8.00;93.20;;;;;;5099096;28;20431;-47
2021/11/08 02:33:25;;;;;;;6.20;4.40;;;7.90;93.10;;;;;;5099864;28;20551;-46
2021/11/08 02:35:52;;;;;;;8.47;5.30;;;7.80;93.00;;;;;;5098961;28;20439;-46
2021/11/08 02:38:25;;;;;;;6.90;5.50;;;7.80;93.00;;;;;;5099569;28;20411;-46
2021/11/08 02:40:53;;;;;;;5.43;4.27;;;7.70;93.00;;;;;;5099486;28;20462;-46
2021/11/08 02:43:21;;;;;;;5.43;4.20;;;7.70;93.00;;;;;;5098591;28;20803;-46
2021/11/08 02:45:54;;;;;;;9.03;4.90;;;7.60;92.90;;;;;;5099009;28;20547;-46
2021/11/08 02:48:20;;;;;;;6.27;4.43;;;7.60;92.90;;;;;;5099160;28;20529;-46
2021/11/08 02:50:53;;;;;;;9.07;4.80;;;7.50;92.90;;;;;;5098740;28;20438;-46
2021/11/08 02:53:19;;;;;;;7.30;4.93;;;7.50;92.90;;;;;;5098908;28;20198;-46
2021/11/08 02:55:45;;;;;;;6.73;4.50;;;7.40;92.90;;;;;;5099018;28;20426;-46
2021/11/08 02:58:11;;;;;;;7.47;4.97;;;7.40;92.90;;;;;;5098007;28;20795;-46
2021/11/08 03:00:37;;;;;;;7.50;4.73;;;7.30;92.90;;;;;;5097626;28;20495;-46
2021/11/08 03:03:03;;;;;;;5.10;4.20;;;7.30;92.90;;;;;;5097763;28;20185;-46
2021/11/08 03:05:34;;;;;;;8.93;4.77;;;7.20;92.80;;;;;;5097654;28;21086;-46
2021/11/08 03:08:03;;;;;;;5.80;4.33;;;7.20;92.90;;;;;;5097528;28;20313;-46
2021/11/08 03:10:31;;;;;;;8.80;6.50;;;7.20;93.20;;;;;;5098290;28;20423;-46
2021/11/08 03:12:59;;;;;;;7.50;4.60;;;7.10;92.80;;;;;;5098525;28;20419;-46
2021/11/08 03:15:35;;;;;;;8.73;4.70;;;7.10;92.80;;;;;;5098571;28;20712;-46
2021/11/08 03:18:12;;;;;;;6.00;5.20;;;7.00;92.80;;;;;;5065366;28;20417;-46
2021/11/08 03:20:38;;;;;;;6.73;4.93;;;7.00;92.80;;;;;;5098168;28;20474;-46
2021/11/08 03:23:06;;;;;;;8.03;4.93;;;6.90;92.80;;;;;;5098525;28;20887;-46
2021/11/08 03:28:00;;;;;;;9.37;5.10;;;6.90;92.90;;;;;;5098009;28;20853;-46
2021/11/08 03:30:35;;;;;;;5.37;4.40;;;6.80;92.80;;;;;;5097978;28;20500;-46
2021/11/08 03:33:00;;;;;;;7.67;5.07;;;6.80;92.80;;;;;;5082199;28;20408;-46
2021/11/08 03:35:27;;;;;;;7.47;4.37;;;6.80;92.90;;;;;;5098409;28;20422;-46
2021/11/08 03:37:54;;;;;;;5.63;4.10;;;6.70;92.90;;;;;;5098403;28;20206;-46
2021/11/08 03:40:31;;;;;;;5.60;5.10;;;6.70;92.90;;;;;;5080038;28;20490;-46
2021/11/08 03:42:58;;;;;;;7.57;4.30;;;6.70;92.80;;;;;;5098542;28;20843;-46
2021/11/08 03:45:25;;;;;;;6.27;5.00;;;6.60;92.80;;;;;;5098222;28;20914;-46
2021/11/08 03:47:53;;;;;;;11.77;5.13;;;6.60;92.80;;;;;;5097973;28;20923;-46
2021/11/08 03:50:19;;;;;;;7.53;4.70;;;6.50;92.70;;;;;;5097852;28;20422;-46
2021/11/08 03:52:46;;;;;;;8.53;4.90;;;6.50;92.70;;;;;;5080141;28;20487;-46
2021/11/08 03:55:12;;;;;;;5.17;4.20;;;6.50;92.60;;;;;;5097344;28;20426;-46
2021/11/08 03:57:38;;;;;;;7.60;4.70;;;6.40;92.60;;;;;;5098130;28;20462;-46
2021/11/08 04:00:05;;;;;;;6.70;4.83;;;6.40;92.60;;;;;;5097836;28;20459;-46
2021/11/08 04:02:33;;;;;;;8.07;4.97;;;6.40;92.60;;;;;;5097844;28;20425;-46
2021/11/08 04:05:01;;;;;;;5.13;4.63;;;6.30;92.50;;;;;;5097425;28;20497;-46
2021/11/08 04:07:27;;;;;;;7.20;5.27;;;6.30;92.50;;;;;;5097451;28;20708;-46
2021/11/08 04:09:52;;;;;;;7.10;5.00;;;6.20;92.50;;;;;;5096986;28;20510;-46
2021/11/08 04:12:19;;;;;;;8.90;5.70;;;6.20;92.40;;;;;;5096598;28;20318;-46
2021/11/08 04:14:44;;;;;;;5.93;4.70;;;6.20;92.50;;;;;;5096935;28;20177;-46
2021/11/08 04:17:11;;;;;;;9.00;5.50;;;6.20;92.50;;;;;;5096455;28;20753;-46
2021/11/08 04:19:37;;;;;;;5.47;4.40;;;6.10;92.40;;;;;;5096554;28;20828;-46
2021/11/08 04:22:03;;;;;;;7.17;4.90;;;6.10;92.50;;;;;;5078625;28;20427;-46
2021/11/08 04:24:30;;;;;;;6.73;4.50;;;6.10;92.50;;;;;;5095952;28;20526;-46
2021/11/08 04:26:55;;;;;;;7.33;4.67;;;6.00;92.50;;;;;;5089573;28;20507;-46
2021/11/08 04:29:23;;;;;;;5.30;4.30;;;6.00;92.50;;;;;;5082960;28;20471;-46
2021/11/08 04:31:50;;;;;;;5.53;4.40;;;6.00;92.60;;;;;;5093335;28;20571;-46
2021/11/08 04:34:22;;;;;;;6.07;4.50;;;6.00;92.60;;;;;;5097520;28;20407;-46
2021/11/08 04:45:03;;;;;;;8.47;4.17;;;5.90;92.70;;;;;;5100361;28;20468;-46
2021/11/08 04:55:10;;;;;;;7.63;4.80;;;5.80;92.50;;;;;;5099646;28;20199;-45
2021/11/08 05:25:02;;;;;;;6.23;4.50;;;5.60;92.30;;;;;;5099915;28;20816;-40
2021/11/08 05:30:12;;;;;;;8.07;4.40;;;5.60;92.30;;;;;;5098076;28;20928;-42
2021/11/08 05:32:42;;;;;;;8.90;4.87;;;5.60;92.30;;;;;;5097282;28;20437;-41
2021/11/08 05:35:10;;;;;;;7.50;4.50;;;5.60;92.30;;;;;;5097532;28;20419;-42
2021/11/08 05:37:37;;;;;;;6.73;4.60;;;5.60;92.30;;;;;;5097837;28;20448;-42
2021/11/08 05:40:10;;;;;;;6.77;4.17;;;5.60;92.30;;;;;;5097207;28;20419;-42
2021/11/08 05:42:36;;;;;;;4.90;3.90;;;5.60;92.30;;;;;;5080447;28;20459;-43
2021/11/08 05:45:06;;;;;;;10.80;4.40;;;5.50;92.20;;;;;;5097535;28;20446;-44
2021/11/08 05:47:32;;;;;;;6.50;4.60;;;5.50;92.20;;;;;;5097662;28;20188;-43
2021/11/08 05:49:59;;;;;;;5.23;4.30;;;5.50;92.20;;;;;;5098516;28;20411;-44
2021/11/08 05:52:25;;;;;;;6.77;4.23;;;5.50;92.20;;;;;;5098516;28;20514;-44
2021/11/08 05:54:50;;;;;;;7.00;4.33;;;5.50;92.20;;;;;;5098372;28;20918;-42
2021/11/08 06:49:29;;;;;;;7.17;5.30;;;5.30;92.10;;;;;;5092518;28;21000;-42
2021/11/08 06:51:56;;;;;;;5.73;5.03;;;5.40;92.10;;;;;;5093106;28;20438;-40
2021/11/08 06:54:24;;;;;;;7.27;4.57;;;5.40;92.10;;;;;;5091973;28;20412;-42
2021/11/08 06:57:34;;;;;;;7.53;5.03;;;5.40;92.00;;;;;;5072884;28;20765;-43
2021/11/08 06:59:41;;;;;;;7.00;4.50;;;5.50;92.00;;;;;;5061353;28;20432;-44
2021/11/08 07:02:07;;;;;;;5.70;5.07;;;5.60;92.00;;;;;;5072826;28;20400;-43
2021/11/08 07:04:33;;;;;;;8.23;4.53;;;5.70;91.90;;;;;;5074216;28;20404;-43
2021/11/08 07:06:59;;;;;;;5.97;4.60;;;5.90;91.80;;;;;;5057493;28;20408;-42
2021/11/08 07:09:25;;;;;;;6.73;5.03;;;6.00;91.70;;;;;;5077595;28;20474;-42
2021/11/08 07:11:51;;;;;;;6.00;5.40;;;6.20;91.70;;;;;;5074776;28;20767;-44
2021/11/08 07:14:17;;;;;;;5.80;5.30;;;6.40;91.60;;;;;;5074303;28;20411;-41
2021/11/08 07:16:44;;;;;;;8.37;5.40;;;6.50;91.50;;;;;;5073722;28;20192;-43
2021/11/08 07:19:11;;;;;;;8.17;5.40;;;6.70;91.50;;;;;;5073853;28;20416;-43
2021/11/08 07:21:37;;;;;;;6.23;5.63;;;6.90;91.40;;;;;;5029496;28;1279155;-43
2021/11/08 07:24:03;;;;;;;6.23;5.63;;;7.10;91.30;;;;;;5075245;28;20197;-43
2021/11/08 07:26:29;;;;;;;7.37;5.97;;;7.40;91.20;;;;;;5079003;28;20247;-43
2021/11/08 07:28:55;;;;;;;10.10;6.30;;;7.60;91.10;;;;;;5078171;28;20540;-44
2021/11/08 07:31:21;;;;;;;6.80;6.20;;;7.80;91.00;;;;;;5097196;28;20273;-43
2021/11/08 07:33:47;;;;;;;7.53;6.10;;;8.10;90.90;;;;;;5096995;28;20512;-44
2021/11/08 07:36:12;;;;;;;6.60;5.70;;;8.40;90.70;;;;;;5095796;28;20786;-43
2021/11/08 07:38:38;;;;;;;7.87;5.17;;;8.70;90.60;;;;;;5096747;28;20195;-44
2021/11/08 07:41:07;;;;;;;8.60;5.93;;;9.00;90.40;;;;;;5096320;28;20192;-42
2021/11/08 07:43:34;;;;;;;6.27;5.53;;;9.30;90.10;;;;;;5078138;28;20188;-43
2021/11/08 07:46:00;;;;;;;6.60;5.47;;;9.60;89.90;;;;;;5097259;28;20802;-43
2021/11/08 07:48:25;;;;;;;8.30;6.43;;;9.90;89.30;;;;;;5096063;28;20466;-43
2021/11/08 07:50:51;;;;;;;8.20;5.80;;;10.30;87.60;;;;;;5095380;28;20571;-42
2021/11/08 07:53:19;;;;;;;9.40;5.40;;;10.50;86.90;;;;;;5076680;28;20720;-44
2021/11/08 07:55:46;;;;;;;6.10;5.30;;;10.80;86.40;;;;;;5094596;28;20203;-44
2021/11/08 07:58:11;;;;;;;5.40;4.87;;;11.20;86.00;;;;;;5095580;28;20479;-45
2021/11/08 08:00:39;;;;;;;7.30;5.20;;;11.50;85.30;;;;;;5096485;28;20418;-47
2021/11/08 08:03:06;;;;;;;5.63;4.60;;;11.90;84.50;;;;;;5096580;28;20434;-43
2021/11/08 08:05:34;;;;;;;7.00;4.93;;;12.30;83.50;;;;;;5079208;28;20717;-46
2021/11/08 08:07:59;;;;;;;5.37;4.67;;;12.70;82.60;;;;;;5087510;28;20765;-44
2021/11/08 08:10:25;;;;;;;5.70;4.67;;;13.20;81.80;;;;;;5075919;28;20423;-42
2021/11/08 08:12:51;;;;;;;6.80;4.93;;;13.50;80.80;;;;;;5075411;28;20201;-42
2021/11/08 08:15:19;;;;;;;7.27;5.90;;;13.90;79.90;;;;;;5075692;28;20502;-41
2021/11/08 08:17:45;;;;;;;6.60;5.23;;;14.30;79.10;;;;;;5073232;28;20575;-43
2021/11/08 08:20:15;;;;;;;5.73;4.60;;;14.70;78.30;;;;;;5074074;28;20467;-44
2021/11/08 08:22:40;;;;;;;10.47;5.20;;;15.10;77.40;;;;;;5075305;28;20841;-44
2021/11/08 08:25:08;;;;;;;5.43;4.23;;;15.50;77.40;;;;;;5079653;28;20439;-43
2021/11/08 08:27:34;;;;;;;4.47;3.67;;;16.00;79.40;;;;;;5096228;28;20185;-43
2021/11/08 08:29:59;;;;;;;6.17;3.87;;;16.60;79.70;;;;;;5096143;28;20720;-44
2021/11/08 08:32:25;;;;;;;4.93;3.93;;;17.20;79.00;;;;;;5094798;28;20578;-43
2021/11/08 08:34:51;;;;;;;9.33;4.37;;;17.70;77.70;;;;;;5093195;28;20186;-42
2021/11/08 08:37:17;;;;;;;6.60;4.20;;;18.30;76.00;;;;;;5092209;28;20460;-44
2021/11/08 08:39:43;;;;;;;6.70;5.10;;;18.70;73.10;;;;;;5093874;28;20181;-44
2021/11/08 08:42:09;;;;;;;5.40;4.40;;;19.20;71.30;;;;;;5092973;28;20440;-43
2021/11/08 08:44:35;;;;;;;5.50;4.60;;;19.70;68.40;;;;;;5113659;28;20199;-44
2021/11/08 08:47:00;;;;;;;6.80;5.07;;;20.10;66.50;;;;;;5096253;28;20418;-44
2021/11/08 08:49:26;;;;;;;5.50;4.80;;;20.50;64.60;;;;;;5112799;28;20604;-45
2021/11/08 08:51:53;;;;;;;5.90;5.17;;;21.00;62.60;;;;;;5114553;28;20188;-43
2021/11/08 08:54:19;;;;;;;6.43;5.83;;;21.30;59.90;;;;;;5079116;28;20195;-45
2021/11/08 08:56:52;;;;;;;7.77;5.03;;;21.60;58.90;;;;;;5097781;28;20507;-44
2021/11/08 08:59:19;;;;;;;5.60;4.13;;;22.00;58.10;;;;;;5115195;28;20552;-46
2021/11/08 09:01:45;;;;;;;6.33;4.60;;;22.40;57.40;;;;;;5098047;28;20517;-45
2021/11/08 09:04:10;;;;;;;5.50;4.60;;;22.80;56.40;;;;;;5116289;28;20934;-47
2021/11/08 09:06:36;;;;;;;5.80;4.20;;;23.20;55.60;;;;;;5116169;28;20203;-45
2021/11/08 09:09:03;;;;;;;6.17;4.83;;;23.60;54.70;;;;;;5114576;28;20216;-45
2021/11/08 09:11:30;;;;;;;5.87;4.07;;;24.00;53.10;;;;;;5113502;28;20184;-45
2021/11/08 09:14:00;;;;;;;6.27;4.40;;;24.30;52.30;;;;;;5113198;28;20474;-47
2021/11/08 09:16:28;;;;;;;8.90;4.33;;;24.70;51.30;;;;;;5113034;28;20418;-43
2021/11/08 09:18:54;;;;;;;5.27;4.07;;;25.00;50.10;;;;;;5112888;28;20908;-43
2021/11/08 09:21:24;;;;;;;8.43;4.23;;;25.30;48.30;;;;;;5093896;28;21094;-44
2021/11/08 09:23:51;;;;;;;4.10;3.50;;;25.60;47.60;;;;;;5095249;28;20419;-46
2021/11/08 09:26:18;;;;;;;6.70;3.80;;;26.00;46.60;;;;;;5096312;28;20854;-44
2021/11/08 09:28:44;;;;;;;9.03;4.10;;;26.30;45.90;;;;;;5115363;28;20492;-43
2021/11/08 09:31:10;;;;;;;6.03;3.67;;;26.60;44.90;;;;;;5118572;28;20413;-43
2021/11/08 09:33:36;;;;;;;4.60;3.30;;;26.90;44.50;;;;;;5117445;28;20521;-46
2021/11/08 09:36:05;;;;;;;6.13;3.72;;;27.30;43.90;;;;;;5098122;28;20422;-46
2021/11/08 09:38:36;;;;;;;4.30;3.20;;;27.30;43.30;;;;;;5117569;28;20272;-48
2021/11/08 09:41:03;;;;;;;6.60;3.43;;;27.40;42.80;;;;;;5118720;28;20408;-56
2021/11/08 09:43:30;;;;;;;5.83;3.63;;;27.20;42.30;;;;;;5100877;28;20470;-46
2021/11/08 09:45:56;;;;;;;6.70;3.53;;;26.80;42.20;;;;;;5118358;28;20418;-47
2021/11/08 09:48:22;;;;;;;8.60;4.33;;;26.10;43.00;;;;;;5118803;28;20489;-45
2021/11/08 09:50:48;;;;;;;4.60;3.43;;;25.40;43.30;;;;;;5118122;28;20188;-47
2021/11/08 09:53:15;;;;;;;8.03;3.70;;;24.80;44.20;;;;;;5118165;28;20431;-46
2021/11/08 09:55:43;;;;;;;5.40;3.47;;;24.10;45.10;;;;;;5118381;28;20415;-45
2021/11/08 09:58:09;;;;;;;4.27;3.20;;;23.50;46.00;;;;;;5100059;28;20433;-46
2021/11/08 10:00:35;;;;;;;5.57;3.20;;;23.00;47.00;;;;;;5099279;28;20422;-47
2021/11/08 10:03:06;;;;;;;4.77;3.37;;;22.60;47.90;;;;;;5116843;28;20494;-45
2021/11/08 10:05:39;;;;;;;5.03;2.90;;;22.70;48.40;;;;;;5117806;28;20655;-48
2021/11/08 10:08:04;;;;;;;6.33;2.90;;;23.30;47.60;;;;;;5117333;28;20473;-45
2021/11/08 10:10:30;;;;;;;9.73;3.90;;;23.80;46.70;;;;;;5118694;28;20458;-45
2021/11/08 10:13:20;;;;;;;6.17;3.53;;;24.50;45.10;;;;;;5118095;28;20391;-45
2021/11/08 10:15:49;;;;;;;13.87;4.13;;;25.40;43.80;;;;;;5097677;28;20537;-46
2021/11/08 10:18:17;;;;;;;11.80;3.57;;;26.20;43.30;;;;;;5097785;28;20792;-44
2021/11/08 10:20:48;;;;;;;11.60;4.13;;;27.10;42.50;;;;;;5097719;28;20423;-47
2021/11/08 10:23:17;;;;;;;12.67;3.97;;;27.70;41.50;;;;;;5097565;28;20432;-45
2021/11/08 10:25:43;;;;;;;9.17;4.20;;;27.90;40.40;;;;;;5107618;28;20466;-46
2021/11/08 10:28:11;;;;;;;10.80;3.87;;;27.90;40.00;;;;;;5116155;28;20675;-45
2021/11/08 10:30:38;;;;;;;6.93;3.37;;;27.60;40.00;;;;;;5115634;28;20430;-46
2021/11/08 10:33:30;;;;;;;9.23;4.30;;;27.00;39.70;;;;;;5116839;28;20727;-45
2021/11/08 10:36:00;;;;;;;7.97;3.20;;;26.20;40.50;;;;;;5117414;28;20945;-45
2021/11/08 10:38:32;;;;;;;10.20;3.53;;;25.40;41.20;;;;;;5117656;28;20837;-46
2021/11/08 10:41:08;;;;;;;10.23;3.40;;;24.60;42.40;;;;;;5098264;28;20441;-45
2021/11/08 10:43:43;;;;;;;10.43;3.87;;;24.00;43.50;;;;;;5116983;28;20544;-45
2021/11/08 10:46:21;;;;;;;4.83;3.33;;;23.30;44.40;;;;;;5100334;28;20458;-44
2021/11/08 10:48:57;;;;;;;4.40;2.77;;;22.80;45.50;;;;;;5117715;28;20456;-45
2021/11/08 10:51:25;;;;;;;8.90;2.80;;;22.40;46.40;;;;;;5116585;28;20448;-45
2021/11/08 10:53:56;;;;;;;8.00;3.13;;;22.10;47.20;;;;;;5116385;28;20415;-44
2021/11/08 10:56:43;;;;;;;7.53;3.20;;;22.20;47.90;;;;;;5115838;28;20435;-45
2021/11/08 10:59:17;;;;;;;12.50;3.13;;;23.20;46.80;;;;;;5116560;28;20697;-45
2021/11/08 11:01:48;;;;;;;6.80;3.70;;;24.40;45.30;;;;;;5117128;28;20482;-46
2021/11/08 11:04:18;;;;;;;6.93;4.00;;;25.60;43.90;;;;;;5117859;28;20442;-45
2021/11/08 11:06:49;;;;;;;6.20;5.30;;;26.50;42.40;;;;;;5116846;28;20688;-45
2021/11/08 11:09:22;;;;;;;10.03;5.37;;;26.90;41.70;;;;;;5114577;28;20473;-44
2021/11/08 11:12:03;;;;;;;8.80;5.90;;;27.10;41.10;;;;;;5113831;28;20442;-45
2021/11/08 11:14:45;;;;;;;11.07;5.43;;;26.60;40.60;;;;;;5080183;28;20502;-44
2021/11/08 11:17:14;;;;;;;8.50;5.43;;;26.00;40.90;;;;;;5098196;28;20492;-47
2021/11/08 11:19:39;;;;;;;6.53;3.50;;;25.30;41.50;;;;;;5116101;28;20847;-44
2021/11/08 11:22:09;;;;;;;6.60;4.50;;;24.70;42.30;;;;;;5115258;28;20670;-46
2021/11/08 11:24:42;;;;;;;9.33;5.40;;;24.20;43.10;;;;;;5113804;28;20260;-44
2021/11/08 11:27:30;;;;;;;7.40;4.90;;;23.70;43.90;;;;;;5115189;28;20780;-45
2021/11/08 11:30:09;;;;;;;6.90;4.70;;;23.40;44.80;;;;;;5114664;28;20543;-46
2021/11/08 11:32:35;;;;;;;10.00;5.13;;;24.00;44.70;;;;;;5114035;28;20416;-45
2021/11/08 11:35:02;;;;;;;6.63;4.20;;;25.00;43.90;;;;;;5115733;28;20492;-44
2021/11/08 11:37:29;;;;;;;6.23;3.93;;;26.20;42.70;;;;;;5098230;28;20225;-45
2021/11/08 11:40:09;;;;;;;6.97;3.50;;;27.40;41.40;;;;;;5112632;28;20418;-46
2021/11/08 11:42:53;;;;;;;10.40;3.67;;;28.50;40.10;;;;;;5093681;28;20491;-46
2021/11/08 11:45:20;;;;;;;7.87;3.80;;;29.30;39.20;;;;;;5114436;28;20522;-47
2021/11/08 11:47:59;;;;;;;7.20;3.00;;;29.20;38.60;;;;;;5113923;28;20439;-44
2021/11/08 11:50:26;;;;;;;6.23;2.90;;;28.50;38.00;;;;;;5111266;28;20435;-45
2021/11/08 11:52:52;;;;;;;9.50;4.40;;;27.90;37.90;;;;;;5110272;28;20419;-45
2021/11/08 11:55:18;;;;;;;7.37;2.70;;;28.10;37.80;;;;;;5108810;28;20458;-43
2021/11/08 11:57:44;;;;;;;4.77;3.00;;;28.00;37.60;;;;;;5108606;28;20503;-45
2021/11/08 12:00:11;;;;;;;6.70;3.07;;;27.50;37.40;;;;;;5110716;28;20428;-43
2021/11/08 12:02:37;;;;;;;6.27;3.33;;;26.90;37.50;;;;;;5097137;28;20436;-44
2021/11/08 12:05:04;;;;;;;8.53;3.90;;;26.10;37.70;;;;;;5074053;28;20703;-44
2021/11/08 12:07:31;;;;;;;7.10;3.17;;;25.30;38.30;;;;;;5091792;28;20445;-44
2021/11/08 12:09:56;;;;;;;6.27;3.80;;;24.50;38.60;;;;;;5072977;28;20459;-44
2021/11/08 12:12:25;;;;;;;5.27;3.30;;;23.80;39.00;;;;;;5072522;28;20493;-45
2021/11/08 12:15:06;;;;;;;7.10;3.07;;;23.10;39.50;;;;;;5092281;28;20177;-44
2021/11/08 12:17:40;;;;;;;5.27;2.87;;;22.50;40.00;;;;;;5092689;28;20427;-44
2021/11/08 12:20:12;;;;;;;5.77;3.50;;;21.90;40.50;;;;;;5076498;28;20438;-44
2021/11/08 12:22:38;;;;;;;10.10;4.03;;;21.40;40.90;;;;;;5090477;28;20419;-46
2021/11/08 12:25:09;;;;;;;5.27;2.90;;;21.00;41.20;;;;;;5091935;28;20539;-43
2021/11/08 12:27:41;;;;;;;5.40;3.33;;;20.60;41.50;;;;;;5093096;28;20438;-44
2021/11/08 12:30:12;;;;;;;7.10;3.50;;;20.30;41.90;;;;;;5094210;28;20477;-44
2021/11/08 12:33:02;;;;;;;6.87;3.50;;;20.00;42.30;;;;;;5091990;28;20590;-43
2021/11/08 12:35:39;;;;;;;7.53;3.47;;;19.70;42.60;;;;;;5090459;28;20548;-42
2021/11/08 12:38:21;;;;;;;8.10;2.80;;;19.50;43.00;;;;;;5111832;28;20417;-42
2021/11/08 12:40:48;;;;;;;10.10;3.30;;;19.30;43.10;;;;;;5111478;28;20509;-42
2021/11/08 12:43:32;;;;;;;8.10;3.47;;;19.20;43.30;;;;;;5111247;28;20509;-43
2021/11/08 12:46:10;;;;;;;5.07;3.47;;;19.10;43.50;;;;;;5091999;28;20437;-43
2021/11/08 12:48:37;;;;;;;5.37;3.40;;;19.00;43.60;;;;;;5111048;28;20457;-45
2021/11/08 12:51:04;;;;;;;5.40;2.60;;;18.90;43.70;;;;;;5112074;28;20478;-44
2021/11/08 12:53:33;;;;;;;9.23;3.27;;;18.90;43.70;;;;;;5112822;28;20709;-43
2021/11/08 12:56:07;;;;;;;10.20;3.43;;;18.90;43.80;;;;;;5114036;28;20690;-43
2021/11/08 12:58:39;;;;;;;6.63;3.47;;;19.30;43.90;;;;;;5114033;28;20758;-43
2021/11/08 13:01:07;;;;;;;6.07;3.40;;;20.20;43.70;;;;;;5114505;28;20555;-43
2021/11/08 13:03:43;;;;;;;8.63;2.80;;;21.50;43.10;;;;;;5116606;28;20421;-44
2021/11/08 13:06:31;;;;;;;8.63;3.10;;;22.80;42.10;;;;;;5119755;28;20574;-44
2021/11/08 13:09:22;;;;;;;9.40;3.53;;;24.20;41.00;;;;;;5120461;28;20466;-43
2021/11/08 13:11:49;;;;;;;12.57;3.77;;;25.70;39.40;;;;;;5101271;28;20422;-48
2021/11/08 13:14:32;;;;;;;6.30;3.70;;;26.80;38.20;;;;;;5117993;28;20447;-44
2021/11/08 13:17:10;;;;;;;7.10;3.20;;;27.80;37.10;;;;;;5101293;28;20498;-46
2021/11/08 13:19:41;;;;;;;7.77;3.20;;;28.80;36.00;;;;;;5117994;28;20718;-46
2021/11/08 13:22:23;;;;;;;7.27;3.87;;;29.50;35.10;;;;;;5117491;28;20422;-44
2021/11/08 13:25:15;;;;;;;5.97;3.50;;;30.30;34.30;;;;;;5117877;28;20440;-44
2021/11/08 13:27:52;;;;;;;5.23;2.50;;;31.20;33.40;;;;;;5070161;28;20423;-46
2021/11/08 13:30:24;;;;;;;7.20;3.23;;;31.80;32.70;;;;;;5115972;28;20425;-45
2021/11/08 13:32:52;;;;;;;9.73;3.30;;;31.80;32.20;;;;;;5118015;28;20410;-46
2021/11/08 13:35:25;;;;;;;16.80;4.40;;;31.30;32.00;;;;;;5117463;28;20475;-45
2021/11/08 13:38:15;;;;;;;8.43;3.63;;;30.40;31.90;;;;;;5116585;28;20388;-46
2021/11/08 13:40:49;;;;;;;9.40;3.17;;;29.50;32.20;;;;;;5115974;28;20412;-45
2021/11/08 13:43:21;;;;;;;8.63;4.07;;;28.90;32.80;;;;;;5099131;28;20470;-45
2021/11/08 13:46:01;;;;;;;11.47;4.53;;;28.90;32.70;;;;;;5109122;28;20423;-45
2021/11/08 13:48:27;;;;;;;7.60;4.20;;;29.10;32.70;;;;;;5096970;28;20487;-46
2021/11/08 13:50:54;;;;;;;11.97;4.67;;;28.70;32.60;;;;;;5096500;28;20413;-46
2021/11/08 13:53:33;;;;;;;6.67;4.10;;;28.10;32.70;;;;;;5096383;28;21007;-44
2021/11/08 13:56:04;;;;;;;6.90;3.43;;;27.20;33.20;;;;;;5079702;28;20426;-45
2021/11/08 13:58:30;;;;;;;9.53;4.13;;;26.50;33.70;;;;;;5062983;28;20447;-45
2021/11/08 14:01:05;;;;;;;7.43;3.63;;;25.70;34.30;;;;;;5061581;28;20451;-45
2021/11/08 14:03:45;;;;;;;9.73;3.60;;;24.90;34.90;;;;;;5096191;28;20599;-43
2021/11/08 14:06:14;;;;;;;10.60;3.10;;;24.20;35.50;;;;;;5111777;28;20435;-45
2021/11/08 14:08:48;;;;;;;9.60;4.40;;;23.60;35.90;;;;;;5099809;28;20497;-43
2021/11/08 14:11:43;;;;;;;5.60;2.67;;;23.00;36.40;;;;;;5097790;28;20437;-43
2021/11/08 14:14:18;;;;;;;5.03;2.90;;;22.50;36.80;;;;;;5117798;28;20986;-43
2021/11/08 14:16:47;;;;;;;8.10;2.87;;;22.10;37.20;;;;;;5118060;28;20425;-44
2021/11/08 14:19:14;;;;;;;6.60;2.83;;;21.80;37.50;;;;;;5116791;28;20414;-45
2021/11/08 14:21:41;;;;;;;6.00;2.67;;;21.80;37.80;;;;;;5115990;28;20441;-43
2021/11/08 14:24:12;;;;;;;8.70;3.30;;;22.00;37.90;;;;;;5116434;28;20866;-45
2021/11/08 14:26:45;;;;;;;8.20;3.13;;;22.50;37.80;;;;;;5117098;28;20437;-44
2021/11/08 14:29:21;;;;;;;5.60;2.63;;;22.50;37.60;;;;;;5116507;28;20491;-44
2021/11/08 14:32:17;;;;;;;5.43;2.50;;;22.40;37.40;;;;;;5117038;28;20412;-43
2021/11/08 14:34:46;;;;;;;3.67;2.23;;;22.20;37.30;;;;;;5114923;28;20439;-43
2021/11/08 14:37:25;;;;;;;6.87;3.17;;;22.00;37.30;;;;;;5099235;28;20417;-44
2021/11/08 14:39:52;;;;;;;4.57;2.23;;;22.30;37.40;;;;;;5116853;28;20827;-44
2021/11/08 14:42:20;;;;;;;7.10;3.50;;;22.70;37.30;;;;;;5117866;28;20905;-44
2021/11/08 14:44:51;;;;;;;3.57;1.97;;;23.10;37.10;;;;;;5116961;28;20715;-44
2021/11/08 14:47:28;;;;;;;5.40;2.77;;;23.50;36.80;;;;;;5097725;28;20413;-43
2021/11/08 14:50:08;;;;;;;4.10;2.70;;;23.90;36.40;;;;;;5114347;28;21198;-45